sensor_id;sensor_type;location;lat;lon;timestamp;P1;durP1;ratioP1;P2;durP2;ratioP2
51636;SDS011;37713;53.254;6.460;2023-05-07T00:00:40;34.63;;;19.70;;
51636;SDS011;37713;53.254;6.460;2023-05-07T00:03:07;28.95;;;19.50;;
51636;SDS011;37713;53.254;6.460;2023-05-07T00:05:33;29.67;;;20.33;;
51636;SDS011;37713;53.254;6.460;2023-05-07T00:07:59;34.00;;;20.13;;
51636;SDS011;37713;53.254;6.460;2023-05-07T00:10:25;30.05;;;19.58;;
51636;SDS011;37713;53.254;6.460;2023-05-07T00:12:51;35.97;;;19.80;;
51636;SDS011;37713;53.254;6.460;2023-05-07T00:15:17;31.23;;;20.33;;
51636;SDS011;37713;53.254;6.460;2023-05-07T00:17:42;28.50;;;20.48;;
51636;SDS011;37713;53.254;6.460;2023-05-07T00:20:08;32.03;;;20.63;;
51636;SDS011;37713;53.254;6.460;2023-05-07T00:22:34;30.10;;;18.90;;
51636;SDS011;37713;53.254;6.460;2023-05-07T00:25:00;32.85;;;19.88;;
51636;SDS011;37713;53.254;6.460;2023-05-07T00:27:26;29.90;;;20.60;;
51636;SDS011;37713;53.254;6.460;2023-05-07T00:29:52;29.33;;;21.02;;
51636;SDS011;37713;53.254;6.460;2023-05-07T00:32:17;31.52;;;20.58;;
51636;SDS011;37713;53.254;6.460;2023-05-07T00:34:43;31.60;;;20.73;;
51636;SDS011;37713;53.254;6.460;2023-05-07T00:37:09;30.35;;;20.17;;
51636;SDS011;37713;53.254;6.460;2023-05-07T00:39:35;28.95;;;19.85;;
51636;SDS011;37713;53.254;6.460;2023-05-07T00:42:01;28.77;;;21.38;;
51636;SDS011;37713;53.254;6.460;2023-05-07T00:44:28;31.23;;;22.63;;
51636;SDS011;37713;53.254;6.460;2023-05-07T00:46:55;33.85;;;22.73;;
51636;SDS011;37713;53.254;6.460;2023-05-07T00:49:29;34.40;;;22.08;;
51636;SDS011;37713;53.254;6.460;2023-05-07T00:52:06;33.10;;;22.95;;
51636;SDS011;37713;53.254;6.460;2023-05-07T00:54:34;32.80;;;23.13;;
51636;SDS011;37713;53.254;6.460;2023-05-07T00:57:01;34.40;;;23.48;;
51636;SDS011;37713;53.254;6.460;2023-05-07T00:59:28;31.00;;;22.27;;
51636;SDS011;37713;53.254;6.460;2023-05-07T01:01:55;38.25;;;24.15;;
51636;SDS011;37713;53.254;6.460;2023-05-07T01:04:21;32.60;;;22.83;;
51636;SDS011;37713;53.254;6.460;2023-05-07T01:06:47;31.42;;;21.67;;
51636;SDS011;37713;53.254;6.460;2023-05-07T01:09:13;35.92;;;23.40;;
51636;SDS011;37713;53.254;6.460;2023-05-07T01:11:39;33.05;;;22.63;;
51636;SDS011;37713;53.254;6.460;2023-05-07T01:14:05;33.78;;;22.92;;
51636;SDS011;37713;53.254;6.460;2023-05-07T01:16:32;35.58;;;23.88;;
51636;SDS011;37713;53.254;6.460;2023-05-07T01:18:58;35.05;;;23.55;;
51636;SDS011;37713;53.254;6.460;2023-05-07T01:21:25;34.60;;;23.27;;
51636;SDS011;37713;53.254;6.460;2023-05-07T01:23:57;35.20;;;22.55;;
51636;SDS011;37713;53.254;6.460;2023-05-07T01:26:23;32.90;;;23.17;;
51636;SDS011;37713;53.254;6.460;2023-05-07T01:28:48;32.45;;;22.73;;
51636;SDS011;37713;53.254;6.460;2023-05-07T01:31:14;35.38;;;23.83;;
51636;SDS011;37713;53.254;6.460;2023-05-07T01:33:41;39.20;;;23.75;;
51636;SDS011;37713;53.254;6.460;2023-05-07T01:36:11;36.35;;;23.33;;
51636;SDS011;37713;53.254;6.460;2023-05-07T01:38:38;35.90;;;24.88;;
51636;SDS011;37713;53.254;6.460;2023-05-07T01:41:06;36.88;;;25.17;;
51636;SDS011;37713;53.254;6.460;2023-05-07T01:43:32;37.10;;;25.33;;
51636;SDS011;37713;53.254;6.460;2023-05-07T01:45:58;40.20;;;25.40;;
51636;SDS011;37713;53.254;6.460;2023-05-07T01:48:26;38.60;;;26.42;;
51636;SDS011;37713;53.254;6.460;2023-05-07T01:50:54;39.05;;;25.33;;
51636;SDS011;37713;53.254;6.460;2023-05-07T01:53:20;38.72;;;25.65;;
51636;SDS011;37713;53.254;6.460;2023-05-07T01:55:46;31.77;;;24.27;;
51636;SDS011;37713;53.254;6.460;2023-05-07T01:58:12;39.45;;;23.40;;
51636;SDS011;37713;53.254;6.460;2023-05-07T02:00:37;34.90;;;25.23;;
51636;SDS011;37713;53.254;6.460;2023-05-07T02:03:04;34.78;;;24.50;;
51636;SDS011;37713;53.254;6.460;2023-05-07T02:05:30;35.13;;;23.15;;
51636;SDS011;37713;53.254;6.460;2023-05-07T02:07:56;34.53;;;23.25;;
51636;SDS011;37713;53.254;6.460;2023-05-07T02:10:22;33.35;;;23.27;;
51636;SDS011;37713;53.254;6.460;2023-05-07T02:12:47;36.17;;;23.42;;
51636;SDS011;37713;53.254;6.460;2023-05-07T02:15:13;36.85;;;23.50;;
51636;SDS011;37713;53.254;6.460;2023-05-07T02:17:39;34.78;;;24.08;;
51636;SDS011;37713;53.254;6.460;2023-05-07T02:20:31;34.03;;;22.95;;
51636;SDS011;37713;53.254;6.460;2023-05-07T02:22:57;33.78;;;23.67;;
51636;SDS011;37713;53.254;6.460;2023-05-07T02:25:23;32.55;;;22.52;;
51636;SDS011;37713;53.254;6.460;2023-05-07T02:27:49;34.17;;;23.70;;
51636;SDS011;37713;53.254;6.460;2023-05-07T02:30:14;34.85;;;23.65;;
51636;SDS011;37713;53.254;6.460;2023-05-07T02:32:40;38.45;;;23.83;;
51636;SDS011;37713;53.254;6.460;2023-05-07T02:35:06;35.05;;;23.60;;
51636;SDS011;37713;53.254;6.460;2023-05-07T02:37:32;42.47;;;25.60;;
51636;SDS011;37713;53.254;6.460;2023-05-07T02:39:58;34.97;;;23.08;;
51636;SDS011;37713;53.254;6.460;2023-05-07T02:42:24;35.17;;;23.60;;
51636;SDS011;37713;53.254;6.460;2023-05-07T02:44:50;38.17;;;24.98;;
51636;SDS011;37713;53.254;6.460;2023-05-07T02:47:16;35.67;;;23.58;;
51636;SDS011;37713;53.254;6.460;2023-05-07T02:49:41;35.83;;;23.60;;
51636;SDS011;37713;53.254;6.460;2023-05-07T02:52:07;34.72;;;23.98;;
51636;SDS011;37713;53.254;6.460;2023-05-07T02:54:33;36.38;;;23.80;;
51636;SDS011;37713;53.254;6.460;2023-05-07T02:56:59;34.60;;;24.80;;
51636;SDS011;37713;53.254;6.460;2023-05-07T02:59:26;39.75;;;27.10;;
51636;SDS011;37713;53.254;6.460;2023-05-07T03:01:51;41.10;;;27.17;;
51636;SDS011;37713;53.254;6.460;2023-05-07T03:04:17;40.97;;;27.20;;
51636;SDS011;37713;53.254;6.460;2023-05-07T03:06:43;38.10;;;26.25;;
51636;SDS011;37713;53.254;6.460;2023-05-07T03:09:09;38.65;;;26.05;;
51636;SDS011;37713;53.254;6.460;2023-05-07T03:11:34;40.58;;;26.63;;
51636;SDS011;37713;53.254;6.460;2023-05-07T03:14:01;39.75;;;26.55;;
51636;SDS011;37713;53.254;6.460;2023-05-07T03:16:27;40.42;;;26.15;;
51636;SDS011;37713;53.254;6.460;2023-05-07T03:18:53;39.20;;;26.90;;
51636;SDS011;37713;53.254;6.460;2023-05-07T03:21:19;39.92;;;26.23;;
51636;SDS011;37713;53.254;6.460;2023-05-07T03:23:44;38.33;;;26.15;;
51636;SDS011;37713;53.254;6.460;2023-05-07T03:26:10;40.28;;;24.92;;
51636;SDS011;37713;53.254;6.460;2023-05-07T03:28:36;38.55;;;25.15;;
51636;SDS011;37713;53.254;6.460;2023-05-07T03:31:02;38.95;;;24.85;;
51636;SDS011;37713;53.254;6.460;2023-05-07T03:33:28;36.22;;;23.83;;
51636;SDS011;37713;53.254;6.460;2023-05-07T03:35:54;40.55;;;24.30;;
51636;SDS011;37713;53.254;6.460;2023-05-07T03:38:20;39.25;;;24.35;;
51636;SDS011;37713;53.254;6.460;2023-05-07T03:40:45;40.67;;;25.55;;
51636;SDS011;37713;53.254;6.460;2023-05-07T03:43:11;36.60;;;23.73;;
51636;SDS011;37713;53.254;6.460;2023-05-07T03:45:37;55.40;;;33.35;;
51636;SDS011;37713;53.254;6.460;2023-05-07T03:48:03;36.88;;;25.00;;
51636;SDS011;37713;53.254;6.460;2023-05-07T03:50:29;38.60;;;25.65;;
51636;SDS011;37713;53.254;6.460;2023-05-07T03:52:54;43.05;;;25.45;;
51636;SDS011;37713;53.254;6.460;2023-05-07T03:55:20;40.85;;;24.20;;
51636;SDS011;37713;53.254;6.460;2023-05-07T03:57:46;37.22;;;23.88;;
51636;SDS011;37713;53.254;6.460;2023-05-07T04:00:12;37.85;;;24.95;;
51636;SDS011;37713;53.254;6.460;2023-05-07T04:02:38;37.50;;;24.98;;
51636;SDS011;37713;53.254;6.460;2023-05-07T04:05:04;38.55;;;25.90;;
51636;SDS011;37713;53.254;6.460;2023-05-07T04:07:30;34.45;;;23.10;;
51636;SDS011;37713;53.254;6.460;2023-05-07T04:09:56;38.90;;;25.00;;
51636;SDS011;37713;53.254;6.460;2023-05-07T04:12:21;37.33;;;23.42;;
51636;SDS011;37713;53.254;6.460;2023-05-07T04:14:47;39.03;;;25.35;;
51636;SDS011;37713;53.254;6.460;2023-05-07T04:17:13;39.70;;;25.10;;
51636;SDS011;37713;53.254;6.460;2023-05-07T04:19:39;40.40;;;24.27;;
51636;SDS011;37713;53.254;6.460;2023-05-07T04:22:04;36.47;;;24.77;;
51636;SDS011;37713;53.254;6.460;2023-05-07T04:24:33;36.28;;;24.50;;
51636;SDS011;37713;53.254;6.460;2023-05-07T04:26:59;37.65;;;24.00;;
51636;SDS011;37713;53.254;6.460;2023-05-07T04:29:25;39.00;;;24.67;;
51636;SDS011;37713;53.254;6.460;2023-05-07T04:31:51;37.42;;;24.40;;
51636;SDS011;37713;53.254;6.460;2023-05-07T04:34:18;40.70;;;25.85;;
51636;SDS011;37713;53.254;6.460;2023-05-07T04:36:43;44.60;;;27.50;;
51636;SDS011;37713;53.254;6.460;2023-05-07T04:39:09;39.67;;;26.20;;
51636;SDS011;37713;53.254;6.460;2023-05-07T04:41:36;39.75;;;25.52;;
51636;SDS011;37713;53.254;6.460;2023-05-07T04:44:01;37.97;;;24.02;;
51636;SDS011;37713;53.254;6.460;2023-05-07T04:46:29;35.17;;;24.42;;
51636;SDS011;37713;53.254;6.460;2023-05-07T04:48:55;34.88;;;23.45;;
51636;SDS011;37713;53.254;6.460;2023-05-07T04:51:20;37.95;;;24.70;;
51636;SDS011;37713;53.254;6.460;2023-05-07T04:53:46;33.75;;;23.20;;
51636;SDS011;37713;53.254;6.460;2023-05-07T04:56:12;36.25;;;23.30;;
51636;SDS011;37713;53.254;6.460;2023-05-07T04:58:38;35.10;;;24.13;;
51636;SDS011;37713;53.254;6.460;2023-05-07T05:01:04;34.35;;;23.10;;
51636;SDS011;37713;53.254;6.460;2023-05-07T05:03:31;40.28;;;24.08;;
51636;SDS011;37713;53.254;6.460;2023-05-07T05:05:57;36.47;;;24.33;;
51636;SDS011;37713;53.254;6.460;2023-05-07T05:08:24;33.65;;;22.65;;
51636;SDS011;37713;53.254;6.460;2023-05-07T05:10:50;33.72;;;23.60;;
51636;SDS011;37713;53.254;6.460;2023-05-07T05:13:16;35.13;;;23.40;;
51636;SDS011;37713;53.254;6.460;2023-05-07T05:15:42;37.15;;;23.92;;
51636;SDS011;37713;53.254;6.460;2023-05-07T05:18:08;35.92;;;23.70;;
51636;SDS011;37713;53.254;6.460;2023-05-07T05:20:34;36.80;;;23.60;;
51636;SDS011;37713;53.254;6.460;2023-05-07T05:23:00;35.05;;;23.60;;
51636;SDS011;37713;53.254;6.460;2023-05-07T05:25:26;34.65;;;23.05;;
51636;SDS011;37713;53.254;6.460;2023-05-07T05:27:52;32.75;;;22.60;;
51636;SDS011;37713;53.254;6.460;2023-05-07T05:30:18;31.65;;;21.13;;
51636;SDS011;37713;53.254;6.460;2023-05-07T05:32:44;32.25;;;22.00;;
51636;SDS011;37713;53.254;6.460;2023-05-07T05:35:09;35.00;;;22.88;;
51636;SDS011;37713;53.254;6.460;2023-05-07T05:37:35;31.00;;;21.60;;
51636;SDS011;37713;53.254;6.460;2023-05-07T05:40:01;35.08;;;23.20;;
51636;SDS011;37713;53.254;6.460;2023-05-07T05:42:28;35.65;;;23.08;;
51636;SDS011;37713;53.254;6.460;2023-05-07T05:44:54;32.42;;;22.50;;
51636;SDS011;37713;53.254;6.460;2023-05-07T05:47:20;31.95;;;22.13;;
51636;SDS011;37713;53.254;6.460;2023-05-07T05:49:45;32.53;;;22.00;;
51636;SDS011;37713;53.254;6.460;2023-05-07T05:52:11;32.78;;;21.85;;
51636;SDS011;37713;53.254;6.460;2023-05-07T05:54:39;34.17;;;23.00;;
51636;SDS011;37713;53.254;6.460;2023-05-07T05:57:04;36.15;;;22.52;;
51636;SDS011;37713;53.254;6.460;2023-05-07T05:59:31;32.67;;;22.52;;
51636;SDS011;37713;53.254;6.460;2023-05-07T06:01:56;31.38;;;21.73;;
51636;SDS011;37713;53.254;6.460;2023-05-07T06:04:22;33.63;;;22.40;;
51636;SDS011;37713;53.254;6.460;2023-05-07T06:06:48;32.65;;;20.83;;
51636;SDS011;37713;53.254;6.460;2023-05-07T06:09:14;30.38;;;21.65;;
51636;SDS011;37713;53.254;6.460;2023-05-07T06:11:40;33.03;;;22.58;;
51636;SDS011;37713;53.254;6.460;2023-05-07T06:14:06;35.15;;;21.27;;
51636;SDS011;37713;53.254;6.460;2023-05-07T06:16:32;35.95;;;22.15;;
51636;SDS011;37713;53.254;6.460;2023-05-07T06:18:57;31.60;;;22.13;;
51636;SDS011;37713;53.254;6.460;2023-05-07T06:21:23;33.70;;;21.42;;
51636;SDS011;37713;53.254;6.460;2023-05-07T06:23:49;37.10;;;22.73;;
51636;SDS011;37713;53.254;6.460;2023-05-07T06:26:17;31.95;;;20.90;;
51636;SDS011;37713;53.254;6.460;2023-05-07T06:28:43;30.88;;;21.30;;
51636;SDS011;37713;53.254;6.460;2023-05-07T06:31:15;30.02;;;21.08;;
51636;SDS011;37713;53.254;6.460;2023-05-07T06:33:48;36.95;;;25.10;;
51636;SDS011;37713;53.254;6.460;2023-05-07T06:36:14;30.75;;;20.83;;
51636;SDS011;37713;53.254;6.460;2023-05-07T06:38:40;33.60;;;23.00;;
51636;SDS011;37713;53.254;6.460;2023-05-07T06:41:06;30.48;;;22.05;;
51636;SDS011;37713;53.254;6.460;2023-05-07T06:43:32;31.50;;;22.33;;
51636;SDS011;37713;53.254;6.460;2023-05-07T06:45:58;33.42;;;23.25;;
51636;SDS011;37713;53.254;6.460;2023-05-07T06:48:24;30.33;;;22.17;;
51636;SDS011;37713;53.254;6.460;2023-05-07T06:50:50;32.33;;;23.48;;
51636;SDS011;37713;53.254;6.460;2023-05-07T06:53:16;33.03;;;23.15;;
51636;SDS011;37713;53.254;6.460;2023-05-07T06:55:42;32.42;;;23.38;;
51636;SDS011;37713;53.254;6.460;2023-05-07T06:58:07;37.15;;;24.20;;
51636;SDS011;37713;53.254;6.460;2023-05-07T07:00:33;35.38;;;24.15;;
51636;SDS011;37713;53.254;6.460;2023-05-07T07:03:00;35.13;;;24.30;;
51636;SDS011;37713;53.254;6.460;2023-05-07T07:05:25;32.08;;;24.15;;
51636;SDS011;37713;53.254;6.460;2023-05-07T07:07:51;32.35;;;23.90;;
51636;SDS011;37713;53.254;6.460;2023-05-07T07:10:20;36.58;;;24.27;;
51636;SDS011;37713;53.254;6.460;2023-05-07T07:12:46;37.90;;;24.17;;
51636;SDS011;37713;53.254;6.460;2023-05-07T07:15:15;32.33;;;22.35;;
51636;SDS011;37713;53.254;6.460;2023-05-07T07:17:41;34.43;;;23.23;;
51636;SDS011;37713;53.254;6.460;2023-05-07T07:20:07;32.03;;;23.33;;
51636;SDS011;37713;53.254;6.460;2023-05-07T07:22:33;29.98;;;21.98;;
51636;SDS011;37713;53.254;6.460;2023-05-07T07:24:59;32.08;;;21.30;;
51636;SDS011;37713;53.254;6.460;2023-05-07T07:27:25;32.60;;;21.63;;
51636;SDS011;37713;53.254;6.460;2023-05-07T07:29:51;28.98;;;20.83;;
51636;SDS011;37713;53.254;6.460;2023-05-07T07:32:17;29.75;;;21.02;;
51636;SDS011;37713;53.254;6.460;2023-05-07T07:34:43;29.83;;;19.50;;
51636;SDS011;37713;53.254;6.460;2023-05-07T07:37:08;31.05;;;20.90;;
51636;SDS011;37713;53.254;6.460;2023-05-07T07:39:34;31.02;;;20.45;;
51636;SDS011;37713;53.254;6.460;2023-05-07T07:42:02;31.05;;;20.63;;
51636;SDS011;37713;53.254;6.460;2023-05-07T07:44:28;34.90;;;21.42;;
51636;SDS011;37713;53.254;6.460;2023-05-07T07:46:54;36.70;;;20.90;;
51636;SDS011;37713;53.254;6.460;2023-05-07T07:49:20;31.13;;;20.95;;
51636;SDS011;37713;53.254;6.460;2023-05-07T07:51:46;34.72;;;22.30;;
51636;SDS011;37713;53.254;6.460;2023-05-07T07:54:12;31.55;;;20.42;;
51636;SDS011;37713;53.254;6.460;2023-05-07T07:56:37;34.53;;;21.30;;
51636;SDS011;37713;53.254;6.460;2023-05-07T07:59:03;33.00;;;20.70;;
51636;SDS011;37713;53.254;6.460;2023-05-07T08:01:29;33.15;;;21.38;;
51636;SDS011;37713;53.254;6.460;2023-05-07T08:03:55;32.40;;;21.50;;
51636;SDS011;37713;53.254;6.460;2023-05-07T08:06:23;33.05;;;21.52;;
51636;SDS011;37713;53.254;6.460;2023-05-07T08:08:51;35.78;;;21.40;;
51636;SDS011;37713;53.254;6.460;2023-05-07T08:11:17;33.88;;;21.52;;
51636;SDS011;37713;53.254;6.460;2023-05-07T08:13:43;34.85;;;22.80;;
51636;SDS011;37713;53.254;6.460;2023-05-07T08:16:10;31.85;;;21.70;;
51636;SDS011;37713;53.254;6.460;2023-05-07T08:18:35;33.13;;;22.02;;
51636;SDS011;37713;53.254;6.460;2023-05-07T08:21:01;30.83;;;20.70;;
51636;SDS011;37713;53.254;6.460;2023-05-07T08:23:27;34.60;;;22.55;;
51636;SDS011;37713;53.254;6.460;2023-05-07T08:25:53;34.65;;;22.83;;
51636;SDS011;37713;53.254;6.460;2023-05-07T08:28:19;31.38;;;21.65;;
51636;SDS011;37713;53.254;6.460;2023-05-07T08:30:46;36.35;;;23.08;;
51636;SDS011;37713;53.254;6.460;2023-05-07T08:33:12;34.08;;;21.77;;
51636;SDS011;37713;53.254;6.460;2023-05-07T08:35:38;34.50;;;22.33;;
51636;SDS011;37713;53.254;6.460;2023-05-07T08:38:04;34.30;;;22.88;;
51636;SDS011;37713;53.254;6.460;2023-05-07T08:40:30;33.10;;;22.40;;
51636;SDS011;37713;53.254;6.460;2023-05-07T08:43:02;34.42;;;22.13;;
51636;SDS011;37713;53.254;6.460;2023-05-07T08:45:30;32.45;;;21.58;;
51636;SDS011;37713;53.254;6.460;2023-05-07T08:48:05;30.50;;;20.25;;
51636;SDS011;37713;53.254;6.460;2023-05-07T08:50:35;31.70;;;20.27;;
51636;SDS011;37713;53.254;6.460;2023-05-07T08:53:04;31.60;;;21.48;;
51636;SDS011;37713;53.254;6.460;2023-05-07T08:55:31;31.40;;;21.23;;
51636;SDS011;37713;53.254;6.460;2023-05-07T08:57:58;33.40;;;21.58;;
51636;SDS011;37713;53.254;6.460;2023-05-07T09:00:24;32.50;;;20.65;;
51636;SDS011;37713;53.254;6.460;2023-05-07T09:02:51;31.92;;;22.35;;
51636;SDS011;37713;53.254;6.460;2023-05-07T09:05:18;30.73;;;21.20;;
51636;SDS011;37713;53.254;6.460;2023-05-07T09:07:45;31.77;;;21.90;;
51636;SDS011;37713;53.254;6.460;2023-05-07T09:10:11;30.85;;;21.17;;
51636;SDS011;37713;53.254;6.460;2023-05-07T09:12:38;32.55;;;21.45;;
51636;SDS011;37713;53.254;6.460;2023-05-07T09:15:05;34.05;;;22.35;;
51636;SDS011;37713;53.254;6.460;2023-05-07T09:17:31;33.78;;;21.38;;
51636;SDS011;37713;53.254;6.460;2023-05-07T09:20:06;31.08;;;22.05;;
51636;SDS011;37713;53.254;6.460;2023-05-07T09:22:33;31.13;;;21.20;;
51636;SDS011;37713;53.254;6.460;2023-05-07T09:25:02;31.63;;;20.60;;
51636;SDS011;37713;53.254;6.460;2023-05-07T09:27:28;30.58;;;20.63;;
51636;SDS011;37713;53.254;6.460;2023-05-07T09:29:54;29.20;;;21.05;;
51636;SDS011;37713;53.254;6.460;2023-05-07T09:32:20;32.67;;;21.48;;
51636;SDS011;37713;53.254;6.460;2023-05-07T09:34:46;29.30;;;21.00;;
51636;SDS011;37713;53.254;6.460;2023-05-07T09:37:12;32.30;;;22.13;;
51636;SDS011;37713;53.254;6.460;2023-05-07T09:39:46;30.15;;;20.60;;
51636;SDS011;37713;53.254;6.460;2023-05-07T09:42:13;29.77;;;21.05;;
51636;SDS011;37713;53.254;6.460;2023-05-07T09:44:45;29.80;;;20.63;;
51636;SDS011;37713;53.254;6.460;2023-05-07T09:47:12;30.85;;;21.17;;
51636;SDS011;37713;53.254;6.460;2023-05-07T09:49:46;30.05;;;20.65;;
51636;SDS011;37713;53.254;6.460;2023-05-07T09:52:13;29.77;;;21.33;;
51636;SDS011;37713;53.254;6.460;2023-05-07T09:54:39;29.67;;;20.60;;
51636;SDS011;37713;53.254;6.460;2023-05-07T09:57:10;34.65;;;21.85;;
51636;SDS011;37713;53.254;6.460;2023-05-07T09:59:37;29.63;;;21.87;;
51636;SDS011;37713;53.254;6.460;2023-05-07T10:02:03;30.48;;;21.73;;
51636;SDS011;37713;53.254;6.460;2023-05-07T10:04:31;30.08;;;20.60;;
51636;SDS011;37713;53.254;6.460;2023-05-07T10:06:57;28.55;;;19.63;;
51636;SDS011;37713;53.254;6.460;2023-05-07T10:09:25;28.20;;;20.20;;
51636;SDS011;37713;53.254;6.460;2023-05-07T10:11:51;29.38;;;21.00;;
51636;SDS011;37713;53.254;6.460;2023-05-07T10:14:19;30.88;;;21.08;;
51636;SDS011;37713;53.254;6.460;2023-05-07T10:16:46;30.85;;;21.38;;
51636;SDS011;37713;53.254;6.460;2023-05-07T10:19:13;30.08;;;20.55;;
51636;SDS011;37713;53.254;6.460;2023-05-07T10:21:43;29.98;;;20.38;;
51636;SDS011;37713;53.254;6.460;2023-05-07T10:24:35;27.35;;;20.20;;
51636;SDS011;37713;53.254;6.460;2023-05-07T10:27:01;26.27;;;19.20;;
51636;SDS011;37713;53.254;6.460;2023-05-07T10:32:33;27.92;;;19.13;;
51636;SDS011;37713;53.254;6.460;2023-05-07T10:35:10;27.02;;;19.13;;
51636;SDS011;37713;53.254;6.460;2023-05-07T10:37:42;24.42;;;19.10;;
51636;SDS011;37713;53.254;6.460;2023-05-07T10:40:10;29.15;;;19.08;;
51636;SDS011;37713;53.254;6.460;2023-05-07T10:42:37;24.55;;;18.00;;
51636;SDS011;37713;53.254;6.460;2023-05-07T10:45:12;26.40;;;19.50;;
51636;SDS011;37713;53.254;6.460;2023-05-07T10:50:43;26.80;;;18.98;;
51636;SDS011;37713;53.254;6.460;2023-05-07T10:55:48;25.52;;;18.08;;
51636;SDS011;37713;53.254;6.460;2023-05-07T10:58:37;24.48;;;18.30;;
51636;SDS011;37713;53.254;6.460;2023-05-07T11:01:03;25.05;;;18.48;;
51636;SDS011;37713;53.254;6.460;2023-05-07T11:03:29;25.63;;;18.67;;
51636;SDS011;37713;53.254;6.460;2023-05-07T11:06:11;25.95;;;19.38;;
51636;SDS011;37713;53.254;6.460;2023-05-07T11:11:38;25.10;;;18.13;;
51636;SDS011;37713;53.254;6.460;2023-05-07T11:14:09;24.20;;;17.75;;
51636;SDS011;37713;53.254;6.460;2023-05-07T11:16:35;23.67;;;18.30;;
51636;SDS011;37713;53.254;6.460;2023-05-07T11:19:03;25.90;;;18.50;;
51636;SDS011;37713;53.254;6.460;2023-05-07T11:21:39;22.55;;;17.40;;
51636;SDS011;37713;53.254;6.460;2023-05-07T11:24:08;23.52;;;17.88;;
51636;SDS011;37713;53.254;6.460;2023-05-07T11:29:14;22.98;;;17.65;;
51636;SDS011;37713;53.254;6.460;2023-05-07T11:31:47;27.35;;;17.92;;
51636;SDS011;37713;53.254;6.460;2023-05-07T11:34:20;23.48;;;16.88;;
51636;SDS011;37713;53.254;6.460;2023-05-07T11:36:50;22.08;;;17.45;;
51636;SDS011;37713;53.254;6.460;2023-05-07T11:39:24;22.17;;;17.13;;
51636;SDS011;37713;53.254;6.460;2023-05-07T11:41:50;26.30;;;17.65;;
51636;SDS011;37713;53.254;6.460;2023-05-07T11:44:15;21.63;;;16.75;;
51636;SDS011;37713;53.254;6.460;2023-05-07T11:46:44;22.85;;;17.00;;
51636;SDS011;37713;53.254;6.460;2023-05-07T11:49:11;22.33;;;17.38;;
51636;SDS011;37713;53.254;6.460;2023-05-07T11:51:37;20.63;;;16.00;;
51636;SDS011;37713;53.254;6.460;2023-05-07T11:54:04;21.52;;;16.85;;
51636;SDS011;37713;53.254;6.460;2023-05-07T11:59:00;21.23;;;16.42;;
51636;SDS011;37713;53.254;6.460;2023-05-07T12:01:26;19.60;;;15.93;;
51636;SDS011;37713;53.254;6.460;2023-05-07T12:03:52;19.85;;;15.70;;
51636;SDS011;37713;53.254;6.460;2023-05-07T12:06:17;22.20;;;16.42;;
51636;SDS011;37713;53.254;6.460;2023-05-07T12:08:44;19.27;;;16.17;;
51636;SDS011;37713;53.254;6.460;2023-05-07T12:11:44;20.52;;;16.67;;
51636;SDS011;37713;53.254;6.460;2023-05-07T12:14:05;20.23;;;15.77;;
51636;SDS011;37713;53.254;6.460;2023-05-07T12:16:30;19.55;;;15.82;;
51636;SDS011;37713;53.254;6.460;2023-05-07T12:18:57;20.23;;;15.60;;
51636;SDS011;37713;53.254;6.460;2023-05-07T12:21:24;21.92;;;16.02;;
51636;SDS011;37713;53.254;6.460;2023-05-07T12:23:50;20.77;;;15.80;;
51636;SDS011;37713;53.254;6.460;2023-05-07T12:26:16;21.63;;;15.52;;
51636;SDS011;37713;53.254;6.460;2023-05-07T12:28:42;20.58;;;15.48;;
51636;SDS011;37713;53.254;6.460;2023-05-07T12:31:08;20.02;;;15.55;;
51636;SDS011;37713;53.254;6.460;2023-05-07T12:33:34;18.67;;;15.20;;
51636;SDS011;37713;53.254;6.460;2023-05-07T12:36:02;24.98;;;16.83;;
51636;SDS011;37713;53.254;6.460;2023-05-07T12:38:34;21.08;;;15.00;;
51636;SDS011;37713;53.254;6.460;2023-05-07T12:41:01;18.52;;;15.10;;
51636;SDS011;37713;53.254;6.460;2023-05-07T12:43:28;19.65;;;15.23;;
51636;SDS011;37713;53.254;6.460;2023-05-07T12:45:59;18.17;;;15.43;;
51636;SDS011;37713;53.254;6.460;2023-05-07T12:48:27;22.05;;;15.68;;
51636;SDS011;37713;53.254;6.460;2023-05-07T12:50:53;20.17;;;15.70;;
51636;SDS011;37713;53.254;6.460;2023-05-07T12:53:20;17.90;;;14.63;;
51636;SDS011;37713;53.254;6.460;2023-05-07T12:55:49;19.92;;;14.95;;
51636;SDS011;37713;53.254;6.460;2023-05-07T12:58:17;19.25;;;15.40;;
51636;SDS011;37713;53.254;6.460;2023-05-07T13:00:56;20.52;;;15.95;;
51636;SDS011;37713;53.254;6.460;2023-05-07T13:03:28;20.10;;;15.45;;
51636;SDS011;37713;53.254;6.460;2023-05-07T13:06:07;16.42;;;14.18;;
51636;SDS011;37713;53.254;6.460;2023-05-07T13:08:38;17.75;;;13.20;;
51636;SDS011;37713;53.254;6.460;2023-05-07T13:11:08;17.77;;;14.15;;
51636;SDS011;37713;53.254;6.460;2023-05-07T13:13:35;18.35;;;14.65;;
51636;SDS011;37713;53.254;6.460;2023-05-07T13:16:04;19.00;;;14.27;;
51636;SDS011;37713;53.254;6.460;2023-05-07T13:18:31;16.38;;;13.98;;
51636;SDS011;37713;53.254;6.460;2023-05-07T13:20:58;17.63;;;14.32;;
51636;SDS011;37713;53.254;6.460;2023-05-07T13:23:25;19.85;;;14.63;;
51636;SDS011;37713;53.254;6.460;2023-05-07T13:25:51;17.08;;;13.90;;
51636;SDS011;37713;53.254;6.460;2023-05-07T13:28:21;17.88;;;14.10;;
51636;SDS011;37713;53.254;6.460;2023-05-07T13:30:47;16.67;;;14.23;;
51636;SDS011;37713;53.254;6.460;2023-05-07T13:33:13;16.73;;;14.00;;
51636;SDS011;37713;53.254;6.460;2023-05-07T13:35:40;17.52;;;14.15;;
51636;SDS011;37713;53.254;6.460;2023-05-07T13:38:06;17.98;;;14.45;;
51636;SDS011;37713;53.254;6.460;2023-05-07T13:40:33;18.30;;;15.20;;
51636;SDS011;37713;53.254;6.460;2023-05-07T13:42:59;16.98;;;14.77;;
51636;SDS011;37713;53.254;6.460;2023-05-07T13:45:27;20.15;;;14.07;;
51636;SDS011;37713;53.254;6.460;2023-05-07T13:47:54;19.08;;;15.18;;
51636;SDS011;37713;53.254;6.460;2023-05-07T13:50:21;19.35;;;15.32;;
51636;SDS011;37713;53.254;6.460;2023-05-07T13:52:47;17.65;;;14.75;;
51636;SDS011;37713;53.254;6.460;2023-05-07T13:55:19;17.63;;;15.05;;
51636;SDS011;37713;53.254;6.460;2023-05-07T13:57:46;18.58;;;15.75;;
51636;SDS011;37713;53.254;6.460;2023-05-07T14:00:13;20.77;;;15.68;;
51636;SDS011;37713;53.254;6.460;2023-05-07T14:02:41;20.70;;;15.13;;
51636;SDS011;37713;53.254;6.460;2023-05-07T14:05:07;20.08;;;15.75;;
51636;SDS011;37713;53.254;6.460;2023-05-07T14:07:34;16.45;;;14.63;;
51636;SDS011;37713;53.254;6.460;2023-05-07T14:10:00;21.35;;;15.40;;
51636;SDS011;37713;53.254;6.460;2023-05-07T14:12:26;21.10;;;16.92;;
51636;SDS011;37713;53.254;6.460;2023-05-07T14:14:52;16.98;;;14.10;;
51636;SDS011;37713;53.254;6.460;2023-05-07T14:17:18;17.58;;;13.95;;
51636;SDS011;37713;53.254;6.460;2023-05-07T14:19:45;15.40;;;12.98;;
51636;SDS011;37713;53.254;6.460;2023-05-07T14:22:10;16.27;;;13.38;;
51636;SDS011;37713;53.254;6.460;2023-05-07T14:24:38;15.10;;;12.98;;
51636;SDS011;37713;53.254;6.460;2023-05-07T14:27:04;17.10;;;13.82;;
51636;SDS011;37713;53.254;6.460;2023-05-07T14:29:30;16.05;;;13.50;;
51636;SDS011;37713;53.254;6.460;2023-05-07T14:31:56;15.25;;;12.00;;
51636;SDS011;37713;53.254;6.460;2023-05-07T14:34:22;14.93;;;12.30;;
51636;SDS011;37713;53.254;6.460;2023-05-07T14:36:48;17.38;;;12.07;;